createdAt,value
2023-07-10T08:22:38.202Z,15112.00
2023-07-10T08:23:38.187Z,15352.00
2023-07-10T08:24:38.166Z,15448.00
2023-07-10T08:25:38.156Z,14908.00
2023-07-10T08:26:38.185Z,13068.00
2023-07-10T08:27:38.161Z,11656.00
2023-07-10T08:32:28.955Z,13888.00
2023-07-10T08:33:28.912Z,16448.00
2023-07-10T08:34:28.909Z,15744.00
2023-07-10T08:35:28.870Z,16128.00
2023-07-10T08:36:28.856Z,16544.00
2023-07-10T08:37:28.866Z,15872.00
2023-07-10T08:38:28.837Z,15160.00
2023-07-10T08:39:28.840Z,13780.00
2023-07-10T08:40:28.812Z,13876.00
2023-07-10T09:04:51.188Z,17792.00
2023-07-10T09:05:51.157Z,18656.00
2023-07-10T09:06:51.168Z,17888.00
2023-07-10T09:07:51.144Z,16512.00
2023-07-10T09:08:51.134Z,16320.00
2023-07-10T09:09:51.117Z,16320.00
2023-07-10T09:10:51.104Z,15388.00
2023-07-10T09:11:51.098Z,13876.00
2023-07-10T09:20:49.548Z,14848.00
2023-07-10T09:21:49.470Z,14768.00
2023-07-10T09:22:49.450Z,13968.00
2023-07-10T09:24:28.229Z,14176.00
2023-07-10T09:39:42.488Z,14684.00
2023-07-10T09:40:42.452Z,14036.00
2023-07-10T09:41:42.436Z,14752.00
2023-07-10T09:42:42.455Z,14860.00
2023-07-10T09:43:42.417Z,16004.00
2023-07-10T09:44:42.399Z,16224.00
2023-07-10T09:45:42.386Z,15000.00
2023-07-10T09:46:42.443Z,13364.00
2023-07-10T09:47:42.458Z,12588.00
2023-07-10T09:48:42.355Z,12764.00
2023-07-10T09:49:42.362Z,12812.00
2023-07-10T09:50:42.330Z,11860.00
2023-07-10T09:51:42.319Z,12516.00
2023-07-10T09:52:42.319Z,13716.00
2023-07-10T09:53:42.297Z,16352.00
2023-07-10T09:54:42.291Z,18496.00
2023-07-10T09:55:42.301Z,18688.00
2023-07-10T09:56:42.261Z,19040.00
2023-07-10T09:57:42.265Z,19104.00
2023-07-10T09:58:42.237Z,19008.00
2023-07-10T09:59:42.232Z,18432.00
2023-07-10T10:00:42.217Z,17760.00
2023-07-10T10:01:42.216Z,16960.00
2023-07-10T10:02:42.215Z,16608.00
2023-07-10T10:03:42.194Z,17056.00
2023-07-10T10:04:42.169Z,16192.00
2023-07-10T10:05:42.171Z,15252.00
2023-07-10T10:06:42.206Z,14256.00
2023-07-10T10:07:42.154Z,13404.00
2023-07-10T10:08:42.125Z,13280.00
2023-07-10T10:09:42.154Z,12824.00
2023-07-10T10:10:42.102Z,12096.00
2023-07-10T10:11:42.095Z,11840.00
2023-07-10T10:12:42.126Z,11456.00
2023-07-10T10:13:42.110Z,11432.00
2023-07-10T10:14:42.065Z,11192.00
2023-07-10T10:15:42.057Z,11016.00
2023-07-10T10:16:42.048Z,10776.00
2023-07-10T10:17:42.120Z,10768.00
2023-07-10T10:18:42.132Z,11328.00
2023-07-10T10:19:42.015Z,12028.00
2023-07-10T10:20:41.999Z,11996.00
2023-07-10T10:21:41.986Z,12352.00
2023-07-10T10:22:41.986Z,13340.00
2023-07-10T10:23:41.968Z,13340.00
2023-07-10T10:24:41.951Z,13576.00
2023-07-10T10:25:41.961Z,13476.00
2023-07-10T10:26:41.935Z,12028.00
2023-07-10T10:27:41.937Z,10712.00
2023-07-10T10:28:41.908Z,9928.00
2023-07-10T10:29:41.902Z,10544.00
2023-07-10T10:45:42.880Z,16896.00
2023-07-10T10:46:42.828Z,16224.00
2023-07-10T10:47:42.928Z,16576.00
2023-07-10T10:48:42.804Z,17152.00
2023-07-10T10:49:42.802Z,16640.00
2023-07-10T10:50:42.788Z,13636.00
2023-07-10T10:51:42.777Z,11780.00
2023-07-10T10:52:42.776Z,10984.00
2023-07-10T10:53:42.786Z,10088.00
2023-07-10T10:54:42.742Z,9796.00
2023-07-10T10:55:42.734Z,9236.00
2023-07-10T10:56:42.720Z,9492.00
2023-07-10T10:57:42.727Z,9244.00
2023-07-10T10:58:42.718Z,9372.00
2023-07-10T10:59:42.692Z,8932.00
2023-07-10T11:00:42.681Z,9056.00
2023-07-10T11:01:42.791Z,9480.00
2023-07-10T11:02:42.731Z,9192.00
2023-07-10T11:03:42.680Z,9316.00
2023-07-10T11:04:42.637Z,9120.00
2023-07-10T11:05:42.645Z,9528.00
2023-07-10T11:06:42.629Z,10216.00
2023-07-10T11:07:42.617Z,9832.00
2023-07-10T11:08:42.591Z,9716.00
2023-07-10T11:09:42.581Z,9628.00
2023-07-10T11:10:42.569Z,10876.00
2023-07-10T11:11:42.562Z,10480.00
2023-07-10T11:12:42.559Z,9600.00
2023-07-10T11:13:42.569Z,8472.00
2023-07-10T11:14:42.527Z,8360.00
2023-07-10T11:15:57.555Z,9016.00
2023-07-10T11:16:57.524Z,8840.00
2023-07-10T11:17:57.567Z,8584.00
2023-07-10T11:18:57.479Z,8944.00
2023-07-10T11:19:57.474Z,10444.00
2023-07-10T11:20:57.458Z,10148.00
2023-07-10T11:21:57.453Z,9932.00
2023-07-10T11:22:58.123Z,9832.00
2023-07-10T11:23:57.441Z,8300.00
2023-07-10T11:24:57.418Z,9608.00
2023-07-10T11:25:57.408Z,7888.00
2023-07-10T11:26:57.401Z,7456.00
2023-07-10T11:27:57.394Z,7288.00
2023-07-10T11:29:07.346Z,6976.00
2023-07-10T11:29:57.372Z,6892.00
2023-07-10T11:30:57.390Z,6968.00
2023-07-10T11:31:57.351Z,7724.00
2023-07-10T11:32:57.427Z,7204.00
2023-07-10T11:33:57.369Z,7744.00
2023-07-10T11:35:10.455Z,9008.00
2023-07-10T11:35:57.320Z,9168.00
2023-07-10T11:36:57.291Z,8604.00
2023-07-10T11:37:57.280Z,9636.00
2023-07-10T11:38:57.267Z,10072.00
2023-07-10T11:39:57.329Z,9736.00
2023-07-10T11:40:57.255Z,9936.00
2023-07-10T11:41:57.240Z,9976.00
2023-07-10T11:42:57.225Z,10336.00
2023-07-10T11:43:57.226Z,11424.00
2023-07-10T11:44:57.239Z,12452.00
2023-07-10T11:45:57.194Z,12628.00
2023-07-10T11:46:57.226Z,13780.00
2023-07-10T11:47:57.203Z,13796.00
2023-07-10T11:48:57.163Z,12364.00
2023-07-10T11:49:57.156Z,11948.00
2023-07-10T11:50:57.155Z,11772.00
2023-07-10T11:51:57.134Z,11868.00
2023-07-10T11:52:57.118Z,11716.00
2023-07-10T11:53:57.113Z,11476.00
2023-07-10T11:54:57.107Z,11720.00
2023-07-10T11:55:57.124Z,12164.00
2023-07-10T11:56:57.081Z,12504.00
2023-07-10T11:57:57.074Z,13140.00
2023-07-10T11:58:57.075Z,14612.00
2023-07-10T11:59:57.054Z,14772.00
2023-07-10T12:00:57.078Z,14172.00
2023-07-10T12:01:57.046Z,14968.00
2023-07-10T12:02:57.217Z,15316.00
2023-07-10T12:03:57.083Z,16832.00
2023-07-10T12:04:57.002Z,14172.00
2023-07-10T12:05:57.005Z,12864.00
2023-07-10T12:06:56.981Z,13308.00
2023-07-10T12:08:00.186Z,13768.00
2023-07-10T12:08:56.972Z,13080.00
2023-07-10T12:09:56.960Z,11052.00
2023-07-10T12:10:56.967Z,10852.00
2023-07-10T12:11:56.957Z,9524.00
2023-07-10T12:12:56.939Z,9244.00
2023-07-10T12:13:56.951Z,10028.00
2023-07-10T12:14:56.909Z,11024.00
2023-07-10T12:15:56.920Z,12188.00
2023-07-10T12:17:56.923Z,11908.00
2023-07-10T12:18:56.931Z,13284.00
2023-07-10T12:19:56.868Z,14672.00
2023-07-10T12:20:56.854Z,15548.00
2023-07-10T12:21:56.857Z,16672.00
2023-07-10T12:22:56.837Z,17440.00
2023-07-10T12:23:56.832Z,18560.00
2023-07-10T12:24:56.810Z,15796.00
2023-07-10T12:25:56.829Z,16608.00
2023-07-10T12:28:56.784Z,18176.00
2023-07-10T12:29:56.835Z,17696.00
2023-07-10T12:30:56.794Z,17120.00
2023-07-10T12:31:56.776Z,16928.00
2023-07-10T12:32:56.804Z,16768.00
2023-07-10T12:33:57.109Z,18528.00
2023-07-10T12:34:56.749Z,19168.00
2023-07-10T12:35:56.713Z,18656.00
2023-07-10T12:36:56.744Z,17568.00
2023-07-10T12:37:56.704Z,17408.00
2023-07-10T12:38:56.698Z,16960.00
2023-07-10T12:39:56.675Z,16400.00
2023-07-10T12:40:56.664Z,15568.00
2023-07-10T12:41:56.691Z,15528.00
2023-07-10T12:42:56.645Z,14520.00
2023-07-10T12:43:56.637Z,14128.00
2023-07-10T12:44:56.686Z,13048.00
2023-07-10T12:45:56.630Z,13656.00
2023-07-10T12:46:56.715Z,14580.00
2023-07-10T12:47:59.112Z,13988.00
2023-07-10T12:48:56.577Z,13716.00
2023-07-10T12:49:56.585Z,15568.00
2023-07-10T12:50:56.578Z,17376.00
2023-07-10T12:51:56.555Z,17696.00
2023-07-10T12:52:56.560Z,16672.00
2023-07-10T12:53:56.550Z,15112.00
2023-07-10T12:54:56.573Z,13552.00
2023-07-10T12:56:07.348Z,14696.00
2023-07-10T12:56:56.507Z,16328.00
2023-07-10T12:57:56.521Z,16360.00
2023-07-10T12:58:56.489Z,15712.00
2023-07-10T12:59:56.505Z,15396.00
2023-07-10T13:00:56.510Z,14840.00
2023-07-10T13:01:56.466Z,15336.00
2023-07-10T13:02:56.542Z,14916.00
2023-07-10T13:03:56.536Z,15304.00
2023-07-10T13:04:56.469Z,16672.00
2023-07-10T13:05:56.442Z,17088.00
2023-07-10T13:06:56.424Z,16384.00
2023-07-10T13:07:56.434Z,14804.00
2023-07-10T13:08:56.425Z,17440.00
2023-07-10T13:09:56.409Z,13268.00
2023-07-10T13:10:56.399Z,13884.00
2023-07-10T13:11:56.383Z,13972.00
2023-07-10T13:12:56.384Z,14456.00
2023-07-10T13:14:09.419Z,15368.00
2023-07-10T13:14:56.367Z,15836.00
2023-07-10T13:15:56.351Z,17824.00
2023-07-10T13:16:56.358Z,20384.00
2023-07-10T13:17:56.394Z,23232.00
2023-07-10T13:18:57.251Z,23808.00
2023-07-10T13:20:07.862Z,25856.00
2023-07-10T13:20:56.313Z,30560.00
2023-07-10T13:21:56.359Z,35168.00
2023-07-10T13:22:56.308Z,31200.00
2023-07-10T13:23:56.290Z,26944.00
2023-07-10T13:24:56.307Z,38528.00
2023-07-10T13:25:56.276Z,57472.00
2023-07-10T13:26:56.267Z,61664.00
2023-07-10T13:27:56.281Z,64032.00
2023-07-10T13:28:56.303Z,66688.00
2023-07-10T13:29:56.253Z,67232.00
2023-07-10T13:30:56.240Z,66624.00
2023-07-10T13:31:56.266Z,65376.00
2023-07-10T13:32:56.284Z,66080.00
2023-07-10T13:33:56.227Z,66848.00
2023-07-10T13:34:56.239Z,68672.00
2023-07-10T13:35:56.217Z,71232.00
2023-07-10T13:36:56.198Z,71616.00
2023-07-10T13:37:56.212Z,71904.00
2023-07-10T13:38:56.191Z,73312.00
2023-07-10T13:39:56.182Z,19200.00
2023-07-10T13:40:56.189Z,74336.00
2023-07-10T13:41:56.166Z,74624.00
2023-07-10T13:42:56.179Z,73568.00
2023-07-10T13:43:56.157Z,35264.00
2023-07-10T13:44:56.143Z,68896.00
2023-07-10T13:45:56.154Z,16544.00
2023-07-10T13:46:56.184Z,17440.00
2023-07-10T13:47:56.199Z,20864.00
2023-07-10T13:48:56.140Z,57184.00
2023-07-10T13:49:56.114Z,23264.00
2023-07-10T13:50:56.109Z,77152.00
2023-07-10T13:51:56.109Z,53824.00
2023-07-10T13:52:56.108Z,21472.00
2023-07-10T13:53:56.086Z,20160.00
2023-07-10T13:54:56.078Z,36768.00
2023-07-10T13:55:56.077Z,56960.00
2023-07-10T13:56:56.062Z,59968.00
2023-07-10T13:57:56.084Z,60960.00
2023-07-10T13:58:56.052Z,74880.00
2023-07-10T13:59:56.068Z,72192.00
2023-07-10T14:00:56.063Z,71392.00
2023-07-10T14:01:56.090Z,72224.00
2023-07-10T14:02:58.156Z,74240.00
2023-07-10T14:03:56.065Z,73856.00
2023-07-10T14:04:56.006Z,74976.00
2023-07-10T14:05:56.008Z,74016.00
2023-07-10T14:06:55.995Z,73536.00
2023-07-10T14:07:56.003Z,73536.00
2023-07-10T14:08:55.982Z,75232.00
2023-07-10T14:09:55.993Z,74976.00
2023-07-10T14:10:55.969Z,73952.00
2023-07-10T14:11:55.967Z,73600.00
2023-07-10T14:12:55.977Z,73344.00
2023-07-10T14:13:56.028Z,73792.00
2023-07-10T14:14:55.947Z,30528.00
2023-07-10T14:15:55.965Z,74976.00
2023-07-10T14:16:55.935Z,76416.00
2023-07-10T14:17:56.003Z,52800.00
2023-07-10T14:18:55.934Z,77088.00
2023-07-10T14:19:55.921Z,74016.00
2023-07-10T14:20:55.919Z,76928.00
2023-07-10T14:21:55.911Z,17216.00
2023-07-10T14:22:55.925Z,17024.00
2023-07-10T14:23:55.901Z,49184.00
2023-07-10T14:24:55.919Z,22144.00
2023-07-10T14:25:58.211Z,49984.00
2023-07-10T14:26:55.992Z,22784.00
2023-07-10T14:27:55.894Z,18560.00
2023-07-10T14:28:55.886Z,18880.00
2023-07-10T14:29:55.868Z,19776.00
2023-07-10T14:30:55.943Z,25056.00
2023-07-10T14:31:55.857Z,27744.00
2023-07-10T14:32:55.896Z,38656.00
2023-07-10T14:33:55.851Z,25120.00
2023-07-10T14:34:55.850Z,23936.00
2023-07-10T14:35:55.845Z,26080.00
2023-07-10T14:36:55.829Z,19392.00
2023-07-10T14:37:55.837Z,18304.00
2023-07-10T14:38:55.824Z,17504.00
2023-07-10T14:39:55.811Z,16928.00
2023-07-10T14:40:55.806Z,16192.00
2023-07-10T14:41:55.802Z,16704.00
2023-07-10T14:42:55.811Z,17888.00
2023-07-10T14:43:55.786Z,46560.00
2023-07-10T14:44:55.787Z,22144.00
2023-07-10T14:45:55.929Z,55456.00
2023-07-10T14:47:06.800Z,60256.00
2023-07-10T14:47:55.790Z,57664.00
2023-07-10T14:48:55.762Z,53248.00
2023-07-10T14:49:55.742Z,18496.00
2023-07-10T14:50:55.912Z,15776.00
2023-07-10T14:51:56.727Z,17472.00
2023-07-10T14:52:55.742Z,18560.00
2023-07-10T14:53:55.721Z,15456.00
2023-07-10T14:54:55.708Z,13244.00
2023-07-10T14:55:55.706Z,11552.00
2023-07-10T14:56:55.700Z,11028.00
2023-07-10T14:57:55.710Z,11204.00
2023-07-10T14:58:55.796Z,12188.00
2023-07-10T14:59:55.678Z,13756.00
2023-07-10T15:00:55.699Z,14212.00
2023-07-10T15:01:55.772Z,15632.00
2023-07-10T15:02:55.755Z,17888.00
2023-07-10T15:03:55.724Z,61152.00
2023-07-10T15:04:55.639Z,21792.00
2023-07-10T15:05:55.622Z,64448.00
2023-07-10T15:06:55.621Z,64224.00
2023-07-10T15:07:55.623Z,30688.00
2023-07-10T15:08:55.602Z,42112.00
2023-07-10T15:09:55.599Z,64064.00
2023-07-10T15:10:55.592Z,63392.00
2023-07-10T15:11:55.586Z,68128.00
2023-07-10T15:12:55.588Z,58496.00
2023-07-10T15:13:55.604Z,50880.00
2023-07-10T15:14:55.569Z,19616.00
2023-07-10T15:15:55.552Z,50240.00
2023-07-10T15:16:55.551Z,72928.00
2023-07-10T15:17:55.566Z,72640.00
2023-07-10T15:18:55.613Z,72672.00
2023-07-10T15:19:55.529Z,72128.00
2023-07-10T15:20:55.524Z,73568.00
2023-07-10T15:21:55.519Z,75936.00
2023-07-10T15:22:55.528Z,76224.00
2023-07-10T15:23:55.506Z,74336.00
2023-07-10T15:24:55.513Z,75040.00
2023-07-10T15:25:55.505Z,75328.00
2023-07-10T15:26:55.538Z,63360.00
2023-07-10T15:27:55.539Z,65952.00
2023-07-10T15:28:55.505Z,66176.00
2023-07-10T15:29:55.505Z,67424.00
2023-07-10T15:30:55.536Z,67776.00
2023-07-10T15:31:55.518Z,66784.00
2023-07-10T15:32:55.522Z,66144.00
2023-07-10T15:33:55.491Z,65536.00
2023-07-10T15:34:55.484Z,65056.00
2023-07-10T15:35:55.511Z,63968.00
2023-07-10T15:36:55.483Z,59712.00
2023-07-10T15:37:55.496Z,61440.00
2023-07-10T15:38:55.484Z,58784.00
2023-07-10T15:39:55.534Z,58432.00
2023-07-10T15:40:55.534Z,19968.00
2023-07-10T15:41:55.481Z,56224.00
2023-07-10T15:42:55.506Z,55136.00
2023-07-10T15:43:55.501Z,54624.00
2023-07-10T15:44:55.484Z,51840.00
2023-07-10T15:45:55.502Z,50144.00
2023-07-10T15:46:55.569Z,53952.00
2023-07-10T15:47:57.485Z,54880.00
2023-07-10T15:48:55.551Z,54528.00
2023-07-10T15:49:55.498Z,53312.00
2023-07-10T15:50:55.489Z,52960.00
2023-07-10T15:51:55.486Z,48960.00
2023-07-10T15:52:55.507Z,49280.00
2023-07-10T15:53:55.498Z,48896.00
2023-07-10T15:54:55.488Z,13412.00
2023-07-10T15:55:55.485Z,21952.00
2023-07-10T15:56:55.487Z,47424.00
2023-07-10T15:57:55.501Z,49184.00
2023-07-10T15:58:55.487Z,49568.00
2023-07-10T15:59:55.485Z,48032.00
2023-07-10T16:00:55.551Z,48224.00
2023-07-10T16:01:55.518Z,48832.00
2023-07-10T16:02:55.734Z,48192.00
2023-07-10T16:03:55.484Z,47072.00
2023-07-10T16:04:55.916Z,45632.00
2023-07-10T16:05:55.486Z,46496.00
2023-07-10T16:06:55.486Z,46592.00
2023-07-10T16:07:55.507Z,46304.00
2023-07-10T16:08:55.480Z,42592.00
2023-07-10T16:09:55.535Z,42624.00
2023-07-10T16:10:55.486Z,43392.00
2023-07-10T16:11:55.513Z,43328.00
2023-07-10T16:12:55.532Z,41856.00
2023-07-10T16:13:55.537Z,42752.00
2023-07-10T16:14:55.512Z,41152.00
2023-07-10T16:15:55.488Z,44064.00
2023-07-10T16:16:55.518Z,39488.00
2023-07-10T16:17:55.616Z,34496.00
2023-07-10T16:18:55.506Z,39776.00
2023-07-10T16:19:55.525Z,40160.00
2023-07-10T16:20:55.615Z,39808.00
2023-07-10T16:21:55.522Z,37952.00
2023-07-10T16:22:55.483Z,37376.00
2023-07-10T16:23:55.472Z,36320.00
2023-07-10T16:24:55.466Z,35488.00
2023-07-10T16:25:55.463Z,34688.00
2023-07-10T16:26:55.466Z,35072.00
2023-07-10T16:27:55.475Z,35744.00
2023-07-10T16:28:55.471Z,35328.00
2023-07-10T16:29:55.458Z,34208.00
2023-07-10T16:30:55.498Z,30464.00
2023-07-10T16:31:55.470Z,34368.00
2023-07-10T16:32:55.652Z,34912.00
2023-07-10T16:33:55.461Z,34112.00
2023-07-10T16:34:55.461Z,33824.00
2023-07-10T16:35:55.454Z,32832.00
2023-07-10T16:36:55.497Z,32480.00
2023-07-10T16:37:55.476Z,32160.00
2023-07-10T16:38:55.453Z,32128.00
2023-07-10T16:39:55.450Z,31328.00
2023-07-10T16:40:55.449Z,30272.00
2023-07-10T16:41:55.443Z,29024.00
2023-07-10T16:42:55.457Z,27264.00
2023-07-10T16:43:55.437Z,29440.00
2023-07-10T16:44:55.437Z,26624.00
2023-07-10T16:45:55.437Z,28960.00
2023-07-10T16:46:55.436Z,28448.00
2023-07-10T16:47:55.615Z,25472.00
2023-07-10T16:48:55.426Z,28256.00
2023-07-10T16:49:55.426Z,24896.00
2023-07-10T16:50:55.425Z,26048.00
2023-07-10T16:51:55.422Z,25504.00
2023-07-10T16:52:55.432Z,28800.00
2023-07-10T16:53:55.468Z,29056.00
2023-07-10T16:54:55.416Z,29696.00
2023-07-10T16:55:55.430Z,28992.00
2023-07-10T16:56:55.416Z,25664.00
2023-07-10T16:57:55.418Z,27008.00
2023-07-10T16:58:55.407Z,26304.00
2023-07-10T16:59:55.402Z,26432.00
2023-07-10T17:00:55.401Z,27744.00
2023-07-10T17:01:55.427Z,28256.00
2023-07-10T17:02:55.477Z,27328.00
2023-07-10T17:03:55.450Z,27712.00
2023-07-10T17:04:55.395Z,24992.00
2023-07-10T17:05:55.386Z,25984.00
2023-07-10T17:06:55.399Z,23200.00
2023-07-10T17:07:55.380Z,25216.00
2023-07-10T17:08:55.383Z,26336.00
2023-07-10T17:09:55.375Z,22624.00
2023-07-10T17:10:55.381Z,23168.00
2023-07-10T17:11:55.389Z,20928.00
2023-07-10T17:12:55.378Z,22368.00
2023-07-10T17:13:55.440Z,25024.00
2023-07-10T17:14:55.367Z,24480.00
2023-07-10T17:15:55.368Z,22976.00
2023-07-10T17:16:55.419Z,18080.00
2023-07-10T17:17:55.393Z,16608.00
2023-07-10T17:18:55.358Z,15296.00
2023-07-10T17:19:55.348Z,14648.00
2023-07-10T17:20:55.374Z,17408.00
2023-07-10T17:21:56.207Z,18016.00
2023-07-10T17:22:55.348Z,18816.00
2023-07-10T17:23:55.345Z,19968.00
2023-07-10T17:24:55.378Z,20576.00
2023-07-10T17:25:55.337Z,19200.00
2023-07-10T17:26:55.340Z,20224.00
2023-07-10T17:27:55.326Z,15840.00
2023-07-10T17:28:55.321Z,18528.00
2023-07-10T17:29:55.316Z,18112.00
2023-07-10T17:30:55.375Z,14488.00
2023-07-10T17:31:55.319Z,13136.00
2023-07-10T17:32:55.357Z,11436.00
2023-07-10T17:33:55.330Z,10576.00
2023-07-10T17:34:55.343Z,9364.00
2023-07-10T17:35:55.290Z,8468.00
2023-07-10T17:37:55.326Z,7580.00
